sensor_id;sensor_type;location;lat;lon;timestamp;temperature;humidity
2957;DHT22;1488;51.548;7.222;2022-09-09T00:02:27;27.20;72.80
2957;DHT22;1488;51.548;7.222;2022-09-09T00:04:58;27.20;72.80
2957;DHT22;1488;51.548;7.222;2022-09-09T00:07:36;27.20;72.80
2957;DHT22;1488;51.548;7.222;2022-09-09T00:10:16;27.20;72.80
2957;DHT22;1488;51.548;7.222;2022-09-09T00:12:51;27.20;72.80
2957;DHT22;1488;51.548;7.222;2022-09-09T00:15:22;27.20;72.80
2957;DHT22;1488;51.548;7.222;2022-09-09T00:17:53;27.10;72.70
2957;DHT22;1488;51.548;7.222;2022-09-09T00:20:25;27.20;72.80
2957;DHT22;1488;51.548;7.222;2022-09-09T00:22:59;27.20;72.80
2957;DHT22;1488;51.548;7.222;2022-09-09T00:25:31;27.10;72.80
2957;DHT22;1488;51.548;7.222;2022-09-09T00:28:04;27.20;72.90
2957;DHT22;1488;51.548;7.222;2022-09-09T00:30:35;27.10;72.80
2957;DHT22;1488;51.548;7.222;2022-09-09T00:33:10;27.10;72.80
2957;DHT22;1488;51.548;7.222;2022-09-09T00:35:44;27.20;72.80
2957;DHT22;1488;51.548;7.222;2022-09-09T00:38:14;27.10;72.80
2957;DHT22;1488;51.548;7.222;2022-09-09T00:40:47;27.10;72.80
2957;DHT22;1488;51.548;7.222;2022-09-09T00:43:30;27.10;72.80
2957;DHT22;1488;51.548;7.222;2022-09-09T00:46:21;27.20;72.80
2957;DHT22;1488;51.548;7.222;2022-09-09T00:48:57;27.20;72.80
2957;DHT22;1488;51.548;7.222;2022-09-09T00:51:30;27.10;72.80
2957;DHT22;1488;51.548;7.222;2022-09-09T00:54:28;27.10;72.80
2957;DHT22;1488;51.548;7.222;2022-09-09T00:57:10;27.10;72.70
2957;DHT22;1488;51.548;7.222;2022-09-09T00:59:45;27.10;72.80
2957;DHT22;1488;51.548;7.222;2022-09-09T01:02:18;27.10;72.80
2957;DHT22;1488;51.548;7.222;2022-09-09T01:04:48;27.10;72.80
2957;DHT22;1488;51.548;7.222;2022-09-09T01:07:16;27.10;72.80
2957;DHT22;1488;51.548;7.222;2022-09-09T01:09:55;27.10;72.80
2957;DHT22;1488;51.548;7.222;2022-09-09T01:12:30;27.10;72.80
2957;DHT22;1488;51.548;7.222;2022-09-09T01:15:08;27.10;72.80
2957;DHT22;1488;51.548;7.222;2022-09-09T01:17:46;27.10;72.80
2957;DHT22;1488;51.548;7.222;2022-09-09T01:20:18;27.10;72.80
2957;DHT22;1488;51.548;7.222;2022-09-09T01:22:56;27.10;72.80
2957;DHT22;1488;51.548;7.222;2022-09-09T01:26:04;27.10;72.80
2957;DHT22;1488;51.548;7.222;2022-09-09T01:28:35;27.10;72.70
2957;DHT22;1488;51.548;7.222;2022-09-09T01:31:03;27.10;72.80
2957;DHT22;1488;51.548;7.222;2022-09-09T01:33:32;27.10;72.80
2957;DHT22;1488;51.548;7.222;2022-09-09T01:36:02;27.10;72.80
2957;DHT22;1488;51.548;7.222;2022-09-09T01:38:31;27.10;72.80
2957;DHT22;1488;51.548;7.222;2022-09-09T01:40:59;27.10;72.80
2957;DHT22;1488;51.548;7.222;2022-09-09T01:43:28;27.10;72.80
2957;DHT22;1488;51.548;7.222;2022-09-09T01:45:58;27.10;72.80
2957;DHT22;1488;51.548;7.222;2022-09-09T01:48:27;27.10;72.80
2957;DHT22;1488;51.548;7.222;2022-09-09T01:50:53;27.10;72.80
2957;DHT22;1488;51.548;7.222;2022-09-09T01:53:21;27.00;72.70
2957;DHT22;1488;51.548;7.222;2022-09-09T01:55:58;27.10;72.80
2957;DHT22;1488;51.548;7.222;2022-09-09T01:58:34;27.10;73.60
2957;DHT22;1488;51.548;7.222;2022-09-09T02:01:10;27.10;72.80
2957;DHT22;1488;51.548;7.222;2022-09-09T02:03:47;27.10;72.80
2957;DHT22;1488;51.548;7.222;2022-09-09T02:06:25;27.10;72.80
2957;DHT22;1488;51.548;7.222;2022-09-09T02:08:56;27.10;72.80
2957;DHT22;1488;51.548;7.222;2022-09-09T02:11:26;27.00;72.80
2957;DHT22;1488;51.548;7.222;2022-09-09T02:14:00;27.10;72.90
2957;DHT22;1488;51.548;7.222;2022-09-09T02:16:32;27.10;72.90
2957;DHT22;1488;51.548;7.222;2022-09-09T02:19:03;27.10;72.90
2957;DHT22;1488;51.548;7.222;2022-09-09T02:21:33;27.10;72.90
2957;DHT22;1488;51.548;7.222;2022-09-09T02:24:04;27.10;72.90
2957;DHT22;1488;51.548;7.222;2022-09-09T02:26:34;27.00;72.90
2957;DHT22;1488;51.548;7.222;2022-09-09T02:29:07;27.10;73.00
2957;DHT22;1488;51.548;7.222;2022-09-09T02:31:36;27.10;73.00
2957;DHT22;1488;51.548;7.222;2022-09-09T02:34:05;27.10;73.00
2957;DHT22;1488;51.548;7.222;2022-09-09T02:36:33;27.00;72.80
2957;DHT22;1488;51.548;7.222;2022-09-09T02:39:01;27.10;72.90
2957;DHT22;1488;51.548;7.222;2022-09-09T02:41:31;27.10;73.00
2957;DHT22;1488;51.548;7.222;2022-09-09T02:43:59;27.10;72.90
2957;DHT22;1488;51.548;7.222;2022-09-09T02:46:48;27.10;72.90
2957;DHT22;1488;51.548;7.222;2022-09-09T02:49:27;27.10;72.90
2957;DHT22;1488;51.548;7.222;2022-09-09T02:52:00;27.10;72.80
2957;DHT22;1488;51.548;7.222;2022-09-09T02:54:29;27.10;72.90
2957;DHT22;1488;51.548;7.222;2022-09-09T02:57:02;27.00;72.80
2957;DHT22;1488;51.548;7.222;2022-09-09T02:59:30;27.10;72.90
2957;DHT22;1488;51.548;7.222;2022-09-09T03:01:58;27.00;72.90
2957;DHT22;1488;51.548;7.222;2022-09-09T03:04:25;27.10;72.90
2957;DHT22;1488;51.548;7.222;2022-09-09T03:06:52;27.00;72.90
2957;DHT22;1488;51.548;7.222;2022-09-09T03:09:19;27.00;73.70
2957;DHT22;1488;51.548;7.222;2022-09-09T03:11:46;27.10;72.90
2957;DHT22;1488;51.548;7.222;2022-09-09T03:14:12;27.00;72.90
2957;DHT22;1488;51.548;7.222;2022-09-09T03:16:40;27.00;72.90
2957;DHT22;1488;51.548;7.222;2022-09-09T03:19:09;27.00;72.90
2957;DHT22;1488;51.548;7.222;2022-09-09T03:21:36;27.00;72.90
2957;DHT22;1488;51.548;7.222;2022-09-09T03:24:05;27.00;72.90
2957;DHT22;1488;51.548;7.222;2022-09-09T03:26:32;27.00;72.90
2957;DHT22;1488;51.548;7.222;2022-09-09T03:28:59;27.00;72.90
2957;DHT22;1488;51.548;7.222;2022-09-09T03:31:26;27.00;73.60
2957;DHT22;1488;51.548;7.222;2022-09-09T03:33:55;27.00;72.90
2957;DHT22;1488;51.548;7.222;2022-09-09T03:36:25;27.00;72.90
2957;DHT22;1488;51.548;7.222;2022-09-09T03:38:53;27.10;73.00
2957;DHT22;1488;51.548;7.222;2022-09-09T03:41:20;27.00;72.90
2957;DHT22;1488;51.548;7.222;2022-09-09T03:43:49;27.00;72.90
2957;DHT22;1488;51.548;7.222;2022-09-09T03:46:16;27.00;72.90
2957;DHT22;1488;51.548;7.222;2022-09-09T03:48:43;27.00;72.90
2957;DHT22;1488;51.548;7.222;2022-09-09T03:51:10;27.00;72.90
2957;DHT22;1488;51.548;7.222;2022-09-09T03:53:38;27.00;72.90
2957;DHT22;1488;51.548;7.222;2022-09-09T03:56:05;27.00;72.80
2957;DHT22;1488;51.548;7.222;2022-09-09T03:58:33;27.00;72.80
2957;DHT22;1488;51.548;7.222;2022-09-09T04:01:02;27.00;72.80
2957;DHT22;1488;51.548;7.222;2022-09-09T04:03:29;27.00;72.80
2957;DHT22;1488;51.548;7.222;2022-09-09T04:05:58;27.00;72.80
2957;DHT22;1488;51.548;7.222;2022-09-09T04:08:25;27.00;72.80
2957;DHT22;1488;51.548;7.222;2022-09-09T04:10:54;27.00;72.80
2957;DHT22;1488;51.548;7.222;2022-09-09T04:13:25;27.00;72.80
2957;DHT22;1488;51.548;7.222;2022-09-09T04:15:52;27.00;72.90
2957;DHT22;1488;51.548;7.222;2022-09-09T04:18:20;27.00;72.80
2957;DHT22;1488;51.548;7.222;2022-09-09T04:20:47;27.00;72.80
2957;DHT22;1488;51.548;7.222;2022-09-09T04:23:14;27.00;72.80
2957;DHT22;1488;51.548;7.222;2022-09-09T04:25:44;27.00;72.80
2957;DHT22;1488;51.548;7.222;2022-09-09T04:28:13;27.00;72.80
2957;DHT22;1488;51.548;7.222;2022-09-09T04:30:40;27.00;72.80
2957;DHT22;1488;51.548;7.222;2022-09-09T04:33:08;27.00;72.70
2957;DHT22;1488;51.548;7.222;2022-09-09T04:35:36;27.00;72.70
2957;DHT22;1488;51.548;7.222;2022-09-09T04:38:03;27.00;72.70
2957;DHT22;1488;51.548;7.222;2022-09-09T04:40:30;27.00;72.70
2957;DHT22;1488;51.548;7.222;2022-09-09T04:42:58;26.50;72.70
2957;DHT22;1488;51.548;7.222;2022-09-09T04:45:27;26.20;73.20
2957;DHT22;1488;51.548;7.222;2022-09-09T04:47:54;25.90;73.80
2957;DHT22;1488;51.548;7.222;2022-09-09T04:50:21;25.70;74.10
2957;DHT22;1488;51.548;7.222;2022-09-09T04:52:48;25.60;74.20
2957;DHT22;1488;51.548;7.222;2022-09-09T04:55:15;25.50;74.70
2957;DHT22;1488;51.548;7.222;2022-09-09T04:57:41;25.30;75.30
2957;DHT22;1488;51.548;7.222;2022-09-09T05:00:09;25.10;75.60
2957;DHT22;1488;51.548;7.222;2022-09-09T05:02:39;25.00;75.80
2957;DHT22;1488;51.548;7.222;2022-09-09T05:05:08;25.00;76.10
2957;DHT22;1488;51.548;7.222;2022-09-09T05:07:36;25.00;76.40
2957;DHT22;1488;51.548;7.222;2022-09-09T05:10:04;24.90;77.10
2957;DHT22;1488;51.548;7.222;2022-09-09T05:12:31;24.80;77.30
2957;DHT22;1488;51.548;7.222;2022-09-09T05:14:58;25.10;77.60
2957;DHT22;1488;51.548;7.222;2022-09-09T05:17:25;25.40;76.10
2957;DHT22;1488;51.548;7.222;2022-09-09T05:19:54;25.50;75.50
2957;DHT22;1488;51.548;7.222;2022-09-09T05:22:21;25.70;75.20
2957;DHT22;1488;51.548;7.222;2022-09-09T05:24:49;25.80;75.10
2957;DHT22;1488;51.548;7.222;2022-09-09T05:27:17;25.90;74.70
2957;DHT22;1488;51.548;7.222;2022-09-09T05:29:45;26.00;74.50
2957;DHT22;1488;51.548;7.222;2022-09-09T05:32:12;26.00;74.50
2957;DHT22;1488;51.548;7.222;2022-09-09T05:34:40;26.10;74.60
2957;DHT22;1488;51.548;7.222;2022-09-09T05:37:08;26.20;74.60
2957;DHT22;1488;51.548;7.222;2022-09-09T05:39:35;26.30;74.50
2957;DHT22;1488;51.548;7.222;2022-09-09T05:42:04;26.30;74.40
2957;DHT22;1488;51.548;7.222;2022-09-09T05:44:31;26.40;74.40
2957;DHT22;1488;51.548;7.222;2022-09-09T05:46:58;26.40;74.20
2957;DHT22;1488;51.548;7.222;2022-09-09T05:49:28;26.50;74.10
2957;DHT22;1488;51.548;7.222;2022-09-09T05:51:55;26.50;74.10
2957;DHT22;1488;51.548;7.222;2022-09-09T05:54:23;26.50;74.00
2957;DHT22;1488;51.548;7.222;2022-09-09T05:56:50;26.60;73.90
2957;DHT22;1488;51.548;7.222;2022-09-09T05:59:19;26.60;73.80
2957;DHT22;1488;51.548;7.222;2022-09-09T06:01:46;26.60;73.70
2957;DHT22;1488;51.548;7.222;2022-09-09T06:04:13;26.60;73.50
2957;DHT22;1488;51.548;7.222;2022-09-09T06:06:40;26.60;73.60
2957;DHT22;1488;51.548;7.222;2022-09-09T06:09:09;26.70;73.60
2957;DHT22;1488;51.548;7.222;2022-09-09T06:11:39;26.70;73.50
2957;DHT22;1488;51.548;7.222;2022-09-09T06:14:06;26.60;73.20
2957;DHT22;1488;51.548;7.222;2022-09-09T06:16:34;26.50;73.30
2957;DHT22;1488;51.548;7.222;2022-09-09T06:19:03;26.60;73.40
2957;DHT22;1488;51.548;7.222;2022-09-09T06:21:31;26.60;73.30
2957;DHT22;1488;51.548;7.222;2022-09-09T06:23:59;26.60;73.40
2957;DHT22;1488;51.548;7.222;2022-09-09T06:26:27;26.70;73.40
2957;DHT22;1488;51.548;7.222;2022-09-09T06:28:55;26.70;73.40
2957;DHT22;1488;51.548;7.222;2022-09-09T06:31:25;26.70;73.30
2957;DHT22;1488;51.548;7.222;2022-09-09T06:33:54;26.70;73.30
2957;DHT22;1488;51.548;7.222;2022-09-09T06:36:22;26.70;73.30
2957;DHT22;1488;51.548;7.222;2022-09-09T06:38:50;26.70;73.30
2957;DHT22;1488;51.548;7.222;2022-09-09T06:41:26;26.80;73.30
2957;DHT22;1488;51.548;7.222;2022-09-09T06:43:55;26.80;73.20
2957;DHT22;1488;51.548;7.222;2022-09-09T06:46:23;26.80;73.20
2957;DHT22;1488;51.548;7.222;2022-09-09T06:48:52;26.80;73.20
2957;DHT22;1488;51.548;7.222;2022-09-09T06:51:23;26.80;73.20
2957;DHT22;1488;51.548;7.222;2022-09-09T09:16:28;27.30;73.20
2957;DHT22;1488;51.548;7.222;2022-09-09T09:18:58;27.30;73.20
2957;DHT22;1488;51.548;7.222;2022-09-09T09:21:32;27.30;73.20
2957;DHT22;1488;51.548;7.222;2022-09-09T09:24:01;27.40;73.10
2957;DHT22;1488;51.548;7.222;2022-09-09T09:26:32;27.40;73.10
2957;DHT22;1488;51.548;7.222;2022-09-09T09:29:03;27.40;72.90
2957;DHT22;1488;51.548;7.222;2022-09-09T09:31:38;27.40;72.90
2957;DHT22;1488;51.548;7.222;2022-09-09T09:34:07;27.40;72.90
2957;DHT22;1488;51.548;7.222;2022-09-09T09:36:40;27.50;73.00
2957;DHT22;1488;51.548;7.222;2022-09-09T09:39:08;27.50;72.80
2957;DHT22;1488;51.548;7.222;2022-09-09T09:41:36;27.50;72.80
2957;DHT22;1488;51.548;7.222;2022-09-09T09:44:05;27.50;72.80
2957;DHT22;1488;51.548;7.222;2022-09-09T09:46:32;27.60;72.80
2957;DHT22;1488;51.548;7.222;2022-09-09T09:49:02;27.60;73.60
2957;DHT22;1488;51.548;7.222;2022-09-09T09:51:32;27.60;72.80
2957;DHT22;1488;51.548;7.222;2022-09-09T09:54:13;27.70;72.80
2957;DHT22;1488;51.548;7.222;2022-09-09T09:56:42;27.80;72.80
2957;DHT22;1488;51.548;7.222;2022-09-09T09:59:23;27.70;72.80
2957;DHT22;1488;51.548;7.222;2022-09-09T10:02:12;27.80;72.70
2957;DHT22;1488;51.548;7.222;2022-09-09T10:04:41;27.80;72.60
2957;DHT22;1488;51.548;7.222;2022-09-09T10:07:11;27.80;72.60
2957;DHT22;1488;51.548;7.222;2022-09-09T10:09:38;27.90;72.60
2957;DHT22;1488;51.548;7.222;2022-09-09T10:12:15;27.80;72.60
2957;DHT22;1488;51.548;7.222;2022-09-09T10:14:52;27.80;72.50
2957;DHT22;1488;51.548;7.222;2022-09-09T10:17:25;27.80;72.50
2957;DHT22;1488;51.548;7.222;2022-09-09T10:20:12;27.80;72.60
2957;DHT22;1488;51.548;7.222;2022-09-09T10:22:49;27.60;72.30
2957;DHT22;1488;51.548;7.222;2022-09-09T10:25:28;27.70;72.50
2957;DHT22;1488;51.548;7.222;2022-09-09T10:28:33;27.80;72.60
2957;DHT22;1488;51.548;7.222;2022-09-09T10:31:15;27.80;72.50
2957;DHT22;1488;51.548;7.222;2022-09-09T10:33:50;27.70;72.60
2957;DHT22;1488;51.548;7.222;2022-09-09T10:36:21;27.70;72.80
2957;DHT22;1488;51.548;7.222;2022-09-09T10:38:53;27.70;72.70
2957;DHT22;1488;51.548;7.222;2022-09-09T10:41:38;27.70;72.80
2957;DHT22;1488;51.548;7.222;2022-09-09T10:47:23;27.80;72.80
2957;DHT22;1488;51.548;7.222;2022-09-09T10:50:09;27.80;72.80
2957;DHT22;1488;51.548;7.222;2022-09-09T10:52:44;27.90;72.90
2957;DHT22;1488;51.548;7.222;2022-09-09T10:55:18;27.90;72.90
2957;DHT22;1488;51.548;7.222;2022-09-09T10:57:47;27.90;72.80
2957;DHT22;1488;51.548;7.222;2022-09-09T11:00:18;27.90;72.80
2957;DHT22;1488;51.548;7.222;2022-09-09T11:02:48;28.00;72.70
2957;DHT22;1488;51.548;7.222;2022-09-09T11:05:19;27.80;70.90
2957;DHT22;1488;51.548;7.222;2022-09-09T11:07:52;27.80;70.60
2957;DHT22;1488;51.548;7.222;2022-09-09T11:10:24;27.80;70.40
2957;DHT22;1488;51.548;7.222;2022-09-09T11:12:56;27.70;70.00
2957;DHT22;1488;51.548;7.222;2022-09-09T11:15:31;27.70;70.00
2957;DHT22;1488;51.548;7.222;2022-09-09T11:18:01;27.70;70.20
2957;DHT22;1488;51.548;7.222;2022-09-09T11:20:31;27.70;70.20
2957;DHT22;1488;51.548;7.222;2022-09-09T11:23:03;27.60;70.00
2957;DHT22;1488;51.548;7.222;2022-09-09T11:25:34;27.60;69.90
2957;DHT22;1488;51.548;7.222;2022-09-09T11:28:19;27.50;69.90
2957;DHT22;1488;51.548;7.222;2022-09-09T11:30:55;27.60;69.90
2957;DHT22;1488;51.548;7.222;2022-09-09T11:33:41;27.60;70.00
2957;DHT22;1488;51.548;7.222;2022-09-09T11:36:37;27.60;70.00
2957;DHT22;1488;51.548;7.222;2022-09-09T11:39:26;27.60;70.10
2957;DHT22;1488;51.548;7.222;2022-09-09T11:42:06;27.50;70.30
2957;DHT22;1488;51.548;7.222;2022-09-09T11:44:33;27.50;70.30
2957;DHT22;1488;51.548;7.222;2022-09-09T11:47:00;27.50;70.30
2957;DHT22;1488;51.548;7.222;2022-09-09T11:49:28;27.50;70.10
2957;DHT22;1488;51.548;7.222;2022-09-09T11:51:57;27.50;70.00
2957;DHT22;1488;51.548;7.222;2022-09-09T11:54:30;27.50;69.70
2957;DHT22;1488;51.548;7.222;2022-09-09T11:56:57;27.50;69.50
2957;DHT22;1488;51.548;7.222;2022-09-09T11:59:26;27.50;69.60
2957;DHT22;1488;51.548;7.222;2022-09-09T12:01:55;27.50;69.60
2957;DHT22;1488;51.548;7.222;2022-09-09T12:04:42;27.50;69.90
2957;DHT22;1488;51.548;7.222;2022-09-09T12:07:27;27.50;69.50
2957;DHT22;1488;51.548;7.222;2022-09-09T12:09:59;27.50;69.30
2957;DHT22;1488;51.548;7.222;2022-09-09T12:12:31;27.50;69.50
2957;DHT22;1488;51.548;7.222;2022-09-09T12:15:17;27.50;69.50
2957;DHT22;1488;51.548;7.222;2022-09-09T12:17:47;27.50;69.30
2957;DHT22;1488;51.548;7.222;2022-09-09T12:20:17;27.40;69.20
2957;DHT22;1488;51.548;7.222;2022-09-09T12:22:56;27.40;69.30
2957;DHT22;1488;51.548;7.222;2022-09-09T12:25:32;27.40;69.40
2957;DHT22;1488;51.548;7.222;2022-09-09T12:28:05;27.40;69.20
2957;DHT22;1488;51.548;7.222;2022-09-09T12:30:41;27.40;69.40
2957;DHT22;1488;51.548;7.222;2022-09-09T12:33:12;27.40;69.40
2957;DHT22;1488;51.548;7.222;2022-09-09T12:35:42;27.30;69.50
2957;DHT22;1488;51.548;7.222;2022-09-09T12:38:13;27.40;69.60
2957;DHT22;1488;51.548;7.222;2022-09-09T12:40:42;27.40;70.50
2957;DHT22;1488;51.548;7.222;2022-09-09T12:43:21;27.40;69.70
2957;DHT22;1488;51.548;7.222;2022-09-09T12:45:49;27.40;69.70
2957;DHT22;1488;51.548;7.222;2022-09-09T12:48:30;27.40;69.80
2957;DHT22;1488;51.548;7.222;2022-09-09T12:50:58;27.40;69.80
2957;DHT22;1488;51.548;7.222;2022-09-09T12:53:28;27.40;69.90
2957;DHT22;1488;51.548;7.222;2022-09-09T13:02:48;27.40;70.00
2957;DHT22;1488;51.548;7.222;2022-09-09T13:05:19;27.30;70.30
2957;DHT22;1488;51.548;7.222;2022-09-09T13:07:46;27.30;70.30
2957;DHT22;1488;51.548;7.222;2022-09-09T13:10:15;27.40;70.40
2957;DHT22;1488;51.548;7.222;2022-09-09T13:12:46;27.40;70.50
2957;DHT22;1488;51.548;7.222;2022-09-09T13:15:19;27.50;70.60
2957;DHT22;1488;51.548;7.222;2022-09-09T13:18:03;27.50;70.60
2957;DHT22;1488;51.548;7.222;2022-09-09T13:20:32;27.50;71.40
2957;DHT22;1488;51.548;7.222;2022-09-09T13:22:59;27.50;70.60
2957;DHT22;1488;51.548;7.222;2022-09-09T13:25:27;27.50;70.60
2957;DHT22;1488;51.548;7.222;2022-09-09T13:28:00;27.50;70.50
2957;DHT22;1488;51.548;7.222;2022-09-09T13:30:29;27.50;70.50
2957;DHT22;1488;51.548;7.222;2022-09-09T13:33:20;27.50;69.90
2957;DHT22;1488;51.548;7.222;2022-09-09T13:35:51;27.50;70.20
2957;DHT22;1488;51.548;7.222;2022-09-09T13:38:18;27.40;69.20
2957;DHT22;1488;51.548;7.222;2022-09-09T13:40:55;27.40;69.10
2957;DHT22;1488;51.548;7.222;2022-09-09T13:43:24;27.40;69.30
2957;DHT22;1488;51.548;7.222;2022-09-09T13:45:56;27.40;69.50
2957;DHT22;1488;51.548;7.222;2022-09-09T13:48:25;27.40;69.60
2957;DHT22;1488;51.548;7.222;2022-09-09T13:51:00;27.40;69.70
2957;DHT22;1488;51.548;7.222;2022-09-09T13:53:27;27.30;70.30
2957;DHT22;1488;51.548;7.222;2022-09-09T13:55:55;27.30;69.80
2957;DHT22;1488;51.548;7.222;2022-09-09T13:58:23;27.30;70.10
2957;DHT22;1488;51.548;7.222;2022-09-09T14:00:51;27.30;70.30
2957;DHT22;1488;51.548;7.222;2022-09-09T14:03:18;27.30;70.40
2957;DHT22;1488;51.548;7.222;2022-09-09T14:05:47;27.30;70.60
2957;DHT22;1488;51.548;7.222;2022-09-09T14:08:25;27.30;70.80
2957;DHT22;1488;51.548;7.222;2022-09-09T14:10:52;27.30;71.00
2957;DHT22;1488;51.548;7.222;2022-09-09T14:13:23;27.30;71.20
2957;DHT22;1488;51.548;7.222;2022-09-09T14:15:51;27.30;71.30
2957;DHT22;1488;51.548;7.222;2022-09-09T14:18:19;27.30;71.40
2957;DHT22;1488;51.548;7.222;2022-09-09T14:20:49;27.20;71.40
2957;DHT22;1488;51.548;7.222;2022-09-09T14:23:16;27.30;71.50
2957;DHT22;1488;51.548;7.222;2022-09-09T14:25:44;27.30;71.60
2957;DHT22;1488;51.548;7.222;2022-09-09T14:28:13;27.30;71.70
2957;DHT22;1488;51.548;7.222;2022-09-09T14:30:40;27.30;71.70
2957;DHT22;1488;51.548;7.222;2022-09-09T14:33:08;27.30;71.70
2957;DHT22;1488;51.548;7.222;2022-09-09T14:35:36;27.30;71.70
2957;DHT22;1488;51.548;7.222;2022-09-09T14:38:05;27.30;71.90
2957;DHT22;1488;51.548;7.222;2022-09-09T14:40:34;27.40;72.00
2957;DHT22;1488;51.548;7.222;2022-09-09T14:43:01;27.30;72.10
2957;DHT22;1488;51.548;7.222;2022-09-09T14:45:28;27.40;72.20
2957;DHT22;1488;51.548;7.222;2022-09-09T14:47:55;27.30;72.20
2957;DHT22;1488;51.548;7.222;2022-09-09T14:50:23;27.30;72.20
2957;DHT22;1488;51.548;7.222;2022-09-09T14:52:50;27.30;72.30
2957;DHT22;1488;51.548;7.222;2022-09-09T14:55:18;27.30;72.40
2957;DHT22;1488;51.548;7.222;2022-09-09T14:57:46;27.30;73.40
2957;DHT22;1488;51.548;7.222;2022-09-09T15:00:13;27.30;72.50
2957;DHT22;1488;51.548;7.222;2022-09-09T15:02:41;27.30;72.60
2957;DHT22;1488;51.548;7.222;2022-09-09T15:05:09;27.30;72.60
2957;DHT22;1488;51.548;7.222;2022-09-09T15:07:36;27.30;72.70
2957;DHT22;1488;51.548;7.222;2022-09-09T15:10:04;27.40;72.80
2957;DHT22;1488;51.548;7.222;2022-09-09T15:12:33;27.30;72.80
2957;DHT22;1488;51.548;7.222;2022-09-09T15:15:01;27.30;72.80
2957;DHT22;1488;51.548;7.222;2022-09-09T15:17:28;27.40;73.00
2957;DHT22;1488;51.548;7.222;2022-09-09T15:19:55;27.40;73.10
2957;DHT22;1488;51.548;7.222;2022-09-09T15:22:22;27.30;73.10
2957;DHT22;1488;51.548;7.222;2022-09-09T15:24:50;27.30;73.20
2957;DHT22;1488;51.548;7.222;2022-09-09T15:27:17;27.30;73.20
2957;DHT22;1488;51.548;7.222;2022-09-09T15:29:45;27.30;73.20
2957;DHT22;1488;51.548;7.222;2022-09-09T15:32:12;27.30;73.20
2957;DHT22;1488;51.548;7.222;2022-09-09T15:34:39;27.30;73.30
2957;DHT22;1488;51.548;7.222;2022-09-09T15:37:06;27.30;73.30
2957;DHT22;1488;51.548;7.222;2022-09-09T15:39:36;27.30;73.20
2957;DHT22;1488;51.548;7.222;2022-09-09T15:42:05;27.30;73.20
2957;DHT22;1488;51.548;7.222;2022-09-09T15:44:39;27.30;73.20
2957;DHT22;1488;51.548;7.222;2022-09-09T15:47:10;27.30;73.20
2957;DHT22;1488;51.548;7.222;2022-09-09T15:49:39;27.30;73.10
2957;DHT22;1488;51.548;7.222;2022-09-09T15:52:06;27.30;73.10
2957;DHT22;1488;51.548;7.222;2022-09-09T15:54:34;27.30;73.00
2957;DHT22;1488;51.548;7.222;2022-09-09T15:57:06;27.30;73.00
2957;DHT22;1488;51.548;7.222;2022-09-09T15:59:33;27.30;72.90
2957;DHT22;1488;51.548;7.222;2022-09-09T16:02:03;27.30;72.90
2957;DHT22;1488;51.548;7.222;2022-09-09T16:04:31;27.30;73.00
2957;DHT22;1488;51.548;7.222;2022-09-09T16:07:00;27.30;73.00
2957;DHT22;1488;51.548;7.222;2022-09-09T16:09:29;27.30;73.00
2957;DHT22;1488;51.548;7.222;2022-09-09T16:11:56;27.30;73.00
2957;DHT22;1488;51.548;7.222;2022-09-09T16:14:24;27.30;73.00
2957;DHT22;1488;51.548;7.222;2022-09-09T16:16:52;27.30;72.70
2957;DHT22;1488;51.548;7.222;2022-09-09T16:19:20;27.30;72.60
2957;DHT22;1488;51.548;7.222;2022-09-09T16:21:49;27.30;72.80
2957;DHT22;1488;51.548;7.222;2022-09-09T16:24:18;27.30;72.70
2957;DHT22;1488;51.548;7.222;2022-09-09T16:26:47;27.30;72.50
2957;DHT22;1488;51.548;7.222;2022-09-09T16:29:15;27.30;72.40
2957;DHT22;1488;51.548;7.222;2022-09-09T16:31:43;27.30;72.40
2957;DHT22;1488;51.548;7.222;2022-09-09T16:34:10;27.30;72.40
2957;DHT22;1488;51.548;7.222;2022-09-09T16:36:39;27.30;72.70
2957;DHT22;1488;51.548;7.222;2022-09-09T16:39:09;27.30;72.80
2957;DHT22;1488;51.548;7.222;2022-09-09T16:41:38;27.30;72.80
2957;DHT22;1488;51.548;7.222;2022-09-09T16:44:06;27.30;73.70
2957;DHT22;1488;51.548;7.222;2022-09-09T16:46:35;27.30;73.70
2957;DHT22;1488;51.548;7.222;2022-09-09T16:49:06;27.30;72.80
2957;DHT22;1488;51.548;7.222;2022-09-09T16:51:35;27.30;72.80
2957;DHT22;1488;51.548;7.222;2022-09-09T16:54:04;27.30;73.60
2957;DHT22;1488;51.548;7.222;2022-09-09T16:59:55;27.30;72.70
2957;DHT22;1488;51.548;7.222;2022-09-09T17:02:24;27.20;72.90
2957;DHT22;1488;51.548;7.222;2022-09-09T17:04:51;27.20;72.90
2957;DHT22;1488;51.548;7.222;2022-09-09T17:07:18;27.20;72.90
2957;DHT22;1488;51.548;7.222;2022-09-09T17:09:45;27.30;73.00
2957;DHT22;1488;51.548;7.222;2022-09-09T17:12:12;27.20;72.90
2957;DHT22;1488;51.548;7.222;2022-09-09T17:14:38;27.20;72.80
2957;DHT22;1488;51.548;7.222;2022-09-09T17:17:06;27.20;72.90
2957;DHT22;1488;51.548;7.222;2022-09-09T17:19:33;27.30;73.00
2957;DHT22;1488;51.548;7.222;2022-09-09T17:22:00;27.20;72.90
2957;DHT22;1488;51.548;7.222;2022-09-09T17:24:27;27.20;72.90
2957;DHT22;1488;51.548;7.222;2022-09-09T17:26:54;27.20;72.90
2957;DHT22;1488;51.548;7.222;2022-09-09T17:29:21;27.20;72.90
2957;DHT22;1488;51.548;7.222;2022-09-09T17:31:48;27.20;72.80
2957;DHT22;1488;51.548;7.222;2022-09-09T17:34:17;27.20;72.80
2957;DHT22;1488;51.548;7.222;2022-09-09T17:36:44;27.20;72.80
2957;DHT22;1488;51.548;7.222;2022-09-09T17:39:11;27.20;72.90
2957;DHT22;1488;51.548;7.222;2022-09-09T17:41:38;27.20;72.90
2957;DHT22;1488;51.548;7.222;2022-09-09T17:44:06;27.20;72.90
2957;DHT22;1488;51.548;7.222;2022-09-09T17:46:35;27.20;72.90
2957;DHT22;1488;51.548;7.222;2022-09-09T17:49:04;27.20;73.00
2957;DHT22;1488;51.548;7.222;2022-09-09T17:51:34;27.20;72.90
2957;DHT22;1488;51.548;7.222;2022-09-09T17:54:02;27.20;73.00
2957;DHT22;1488;51.548;7.222;2022-09-09T17:56:31;27.20;73.00
2957;DHT22;1488;51.548;7.222;2022-09-09T17:58:59;27.20;73.00
2957;DHT22;1488;51.548;7.222;2022-09-09T18:01:28;27.20;73.00
2957;DHT22;1488;51.548;7.222;2022-09-09T18:03:56;27.20;73.00
2957;DHT22;1488;51.548;7.222;2022-09-09T18:06:27;27.20;73.10
2957;DHT22;1488;51.548;7.222;2022-09-09T18:08:57;27.20;73.10
2957;DHT22;1488;51.548;7.222;2022-09-09T18:11:26;27.20;73.10
2957;DHT22;1488;51.548;7.222;2022-09-09T18:13:55;27.20;73.10
2957;DHT22;1488;51.548;7.222;2022-09-09T18:16:23;27.20;73.10
2957;DHT22;1488;51.548;7.222;2022-09-09T18:18:51;27.20;73.10
2957;DHT22;1488;51.548;7.222;2022-09-09T18:21:18;27.20;73.10
2957;DHT22;1488;51.548;7.222;2022-09-09T18:23:48;27.20;73.10
2957;DHT22;1488;51.548;7.222;2022-09-09T18:26:20;27.20;73.20
2957;DHT22;1488;51.548;7.222;2022-09-09T18:28:50;27.20;73.20
2957;DHT22;1488;51.548;7.222;2022-09-09T18:31:19;27.20;73.30
2957;DHT22;1488;51.548;7.222;2022-09-09T18:33:48;27.10;73.20
2957;DHT22;1488;51.548;7.222;2022-09-09T18:36:19;27.20;73.30
2957;DHT22;1488;51.548;7.222;2022-09-09T18:38:47;27.20;73.30
2957;DHT22;1488;51.548;7.222;2022-09-09T18:41:15;27.10;73.30
2957;DHT22;1488;51.548;7.222;2022-09-09T18:43:44;27.10;73.30
2957;DHT22;1488;51.548;7.222;2022-09-09T18:46:12;27.20;73.40
2957;DHT22;1488;51.548;7.222;2022-09-09T18:48:40;27.20;73.40
2957;DHT22;1488;51.548;7.222;2022-09-09T18:51:12;27.20;73.40
2957;DHT22;1488;51.548;7.222;2022-09-09T18:53:39;27.20;73.30
2957;DHT22;1488;51.548;7.222;2022-09-09T18:56:09;27.10;73.30
2957;DHT22;1488;51.548;7.222;2022-09-09T18:58:36;27.20;73.40
2957;DHT22;1488;51.548;7.222;2022-09-09T19:01:09;27.10;73.30